METAR Data
IDs: Format: Raw Decoded Include TAF

Data at: 2132 UTC 22 Sep 2020

KASX 222053Z AUTO 32003KT 10SM CLR 26/12 A3002 RMK AO2 SLP165 T02560117 56019
KASX 221953Z AUTO 27003KT 10SM CLR 27/09 A3004 RMK AO2 SLP169 T02670089
KASX 221853Z AUTO 20003KT 10SM CLR 26/09 A3006 RMK AO2 SLP177 T02560094
KASX 221753Z AUTO 26005KT 10SM CLR 25/10 A3008 RMK AO2 SLP184 T02500100 10250 20100 58013
KASX 221653Z AUTO VRB03KT 10SM CLR 23/12 A3010 RMK AO2 SLP190 T02330122
KASX 221553Z AUTO 28003KT 10SM CLR 21/14 A3011 RMK AO2 SLP196 T02110139
KASX 221453Z AUTO 25004KT 10SM CLR 19/14 A3012 RMK AO2 SLP198 T01890139 51006
KASX 221353Z AUTO 21007KT 10SM CLR 17/14 A3011 RMK AO2 SLP197 T01670139
KASX 221253Z AUTO 23006KT 10SM CLR 14/13 A3011 RMK AO2 SLP196 T01390128
KASX 221204Z AUTO 24005KT 3SM BR CLR 11/10 A3010 RMK AO2 T01060100
KASX 221153Z AUTO 23005KT 1 1/4SM BR CLR 11/10 A3010 RMK AO2 SLP194 T01060100 10167 20106 53009
KASX 221053Z AUTO 22006KT 10SM CLR 12/11 A3008 RMK AO2 SLP187 T01170111
KASX 220953Z AUTO 23006KT 10SM CLR 14/13 A3007 RMK AO2 SLP184 T01440128
KASX 220853Z AUTO 22007KT 10SM CLR 14/13 A3007 RMK AO2 SLP183 T01440128 53002
KASX 220753Z AUTO 22008KT 10SM CLR 16/13 A3007 RMK AO2 SLP181 T01560133
KASX 220653Z AUTO 22008KT 10SM CLR 17/13 A3006 RMK AO2 SLP179 T01670133
KASX 220553Z AUTO 21008KT 10SM CLR 16/13 A3006 RMK AO2 SLP180 T01610133 10206 20150 402330139 50002
KASX 220453Z AUTO 21007KT 10SM CLR 16/13 A3007 RMK AO2 SLP181 T01560133
KASX 220353Z AUTO 21007KT 10SM CLR 15/13 A3006 RMK AO2 SLP181 T01500128
KASX 220253Z AUTO 22009KT 10SM CLR 17/13 A3006 RMK AO2 SLP178 T01720133 53007
KASX 220153Z AUTO 20007KT 10SM CLR 18/13 A3005 RMK AO2 SLP177 T01780133
KASX 220053Z AUTO 19008KT 10SM CLR 19/13 A3004 RMK AO2 SLP173 T01890128
KASX 212353Z AUTO 20011KT 10SM SCT095 BKN120 21/13 A3004 RMK AO2 SLP172 T02060128 10233 20206 53001
KASX 212253Z AUTO 19005KT 10SM OVC090 21/14 A3003 RMK AO2 SLP168 T02060139
KASX 212153Z AUTO 20008KT 10SM FEW085 22/13 A3004 RMK AO2 LTG DSNT SE SLP171 T02220133
KASX 212053Z AUTO 21014G26KT 10SM SCT090 23/12 A3003 RMK AO2 PK WND 22026/2048 LTG DSNT SW SLP169 T02280122 56010
KASX 211953Z AUTO 20014G23KT 10SM CLR 23/12 A3003 RMK AO2 SLP169 T02330122
KASX 211853Z AUTO 21012G20KT 10SM SCT110 23/12 A3005 RMK AO2 SLP176 T02280122
KASX 211753Z AUTO 19014G22KT 10SM CLR 22/11 A3007 RMK AO2 SLP181 T02170111 10222 20139 58016
KASX 211653Z AUTO 22018G25KT 10SM CLR 21/11 A3009 RMK AO2 SLP187 T02110111
KASX 211553Z AUTO 20015G22KT 10SM CLR 19/10 A3010 RMK AO2 SLP193 T01940100
KASX 211453Z AUTO 20009G21KT 10SM CLR 18/09 A3011 RMK AO2 SLP197 T01830089 58004
KASX 211353Z AUTO 20011G19KT 10SM SCT110 16/08 A3012 RMK AO2 SLP200 T01610078
KASX 211253Z AUTO 20009KT 10SM CLR 14/07 A3013 RMK AO2 SLP203 T01440067
KASX 211153Z AUTO 19009G17KT 10SM CLR 14/07 A3013 RMK AO2 SLP202 T01390067 10161 20139 52000
KASX 211053Z AUTO 20011G22KT 10SM CLR 14/06 A3012 RMK AO2 SLP202 T01440061
KASX 210953Z AUTO 19011G21KT 10SM FEW065 15/06 A3013 RMK AO2 SLP201 T01500061